sensor_id;sensor_type;location;lat;lon;timestamp;temperature;humidity
20422;DHT22;10370;53.102;18.034;2023-01-08T00:02:28;5.30;99.90
20422;DHT22;10370;53.102;18.034;2023-01-08T00:07:56;5.20;99.90
20422;DHT22;10370;53.102;18.034;2023-01-08T00:13:17;5.10;99.90
20422;DHT22;10370;53.102;18.034;2023-01-08T01:27:31;4.60;99.90
20422;DHT22;10370;53.102;18.034;2023-01-08T02:46:31;4.50;99.90
20422;DHT22;10370;53.102;18.034;2023-01-08T05:25:19;3.40;99.90
20422;DHT22;10370;53.102;18.034;2023-01-08T06:54:14;3.30;99.90
20422;DHT22;10370;53.102;18.034;2023-01-08T07:16:44;3.30;99.90
20422;DHT22;10370;53.102;18.034;2023-01-08T07:22:05;3.30;99.90
20422;DHT22;10370;53.102;18.034;2023-01-08T07:27:26;3.40;99.90
20422;DHT22;10370;53.102;18.034;2023-01-08T07:32:49;3.30;99.90
20422;DHT22;10370;53.102;18.034;2023-01-08T07:38:10;3.40;99.90
20422;DHT22;10370;53.102;18.034;2023-01-08T07:43:31;3.40;99.90
20422;DHT22;10370;53.102;18.034;2023-01-08T07:48:53;3.40;99.90
20422;DHT22;10370;53.102;18.034;2023-01-08T07:54:15;3.50;99.90
20422;DHT22;10370;53.102;18.034;2023-01-08T07:59:36;3.50;99.90
20422;DHT22;10370;53.102;18.034;2023-01-08T08:16:55;3.60;99.90
20422;DHT22;10370;53.102;18.034;2023-01-08T08:22:16;3.60;99.90
20422;DHT22;10370;53.102;18.034;2023-01-08T08:27:37;3.70;99.90
20422;DHT22;10370;53.102;18.034;2023-01-08T08:33:03;3.70;99.90
20422;DHT22;10370;53.102;18.034;2023-01-08T08:38:26;3.70;99.90
20422;DHT22;10370;53.102;18.034;2023-01-08T08:43:47;3.70;99.90
20422;DHT22;10370;53.102;18.034;2023-01-08T08:49:11;3.80;99.90
20422;DHT22;10370;53.102;18.034;2023-01-08T08:54:32;3.90;99.90
20422;DHT22;10370;53.102;18.034;2023-01-08T09:25:43;4.20;99.90
20422;DHT22;10370;53.102;18.034;2023-01-08T09:31:04;4.30;99.90
20422;DHT22;10370;53.102;18.034;2023-01-08T09:36:26;4.30;99.90
20422;DHT22;10370;53.102;18.034;2023-01-08T09:41:47;4.40;99.90
20422;DHT22;10370;53.102;18.034;2023-01-08T09:47:30;4.40;99.90
20422;DHT22;10370;53.102;18.034;2023-01-08T09:52:52;4.40;99.90
20422;DHT22;10370;53.102;18.034;2023-01-08T10:03:56;4.50;99.90
20422;DHT22;10370;53.102;18.034;2023-01-08T10:14:39;4.60;99.90
20422;DHT22;10370;53.102;18.034;2023-01-08T10:20:23;4.70;99.90
20422;DHT22;10370;53.102;18.034;2023-01-08T10:25:53;4.70;99.90
20422;DHT22;10370;53.102;18.034;2023-01-08T10:31:15;4.80;99.90
20422;DHT22;10370;53.102;18.034;2023-01-08T10:36:39;4.80;99.90
20422;DHT22;10370;53.102;18.034;2023-01-08T10:42:04;4.90;99.90
20422;DHT22;10370;53.102;18.034;2023-01-08T10:47:28;4.90;99.90
20422;DHT22;10370;53.102;18.034;2023-01-08T10:53:02;5.00;99.90
20422;DHT22;10370;53.102;18.034;2023-01-08T10:58:25;5.00;99.90
20422;DHT22;10370;53.102;18.034;2023-01-08T11:22:39;5.10;99.90
20422;DHT22;10370;53.102;18.034;2023-01-08T11:27:43;5.30;99.90
20422;DHT22;10370;53.102;18.034;2023-01-08T11:38:24;5.40;99.90
20422;DHT22;10370;53.102;18.034;2023-01-08T11:43:57;5.50;99.90
20422;DHT22;10370;53.102;18.034;2023-01-08T12:12:33;5.70;99.90
20422;DHT22;10370;53.102;18.034;2023-01-08T12:36:43;6.00;99.90
20422;DHT22;10370;53.102;18.034;2023-01-08T12:42:13;6.10;99.90
20422;DHT22;10370;53.102;18.034;2023-01-08T13:04:45;6.00;99.90
20422;DHT22;10370;53.102;18.034;2023-01-08T13:10:17;6.00;99.90
20422;DHT22;10370;53.102;18.034;2023-01-08T13:15:40;6.00;99.90
20422;DHT22;10370;53.102;18.034;2023-01-08T13:21:02;6.00;99.90
20422;DHT22;10370;53.102;18.034;2023-01-08T13:26:32;6.00;99.90
20422;DHT22;10370;53.102;18.034;2023-01-08T13:37:24;6.00;99.90
20422;DHT22;10370;53.102;18.034;2023-01-08T13:42:48;6.00;99.90
20422;DHT22;10370;53.102;18.034;2023-01-08T13:48:27;6.10;99.90
20422;DHT22;10370;53.102;18.034;2023-01-08T13:53:48;6.10;99.90
20422;DHT22;10370;53.102;18.034;2023-01-08T14:11:46;6.10;99.90
20422;DHT22;10370;53.102;18.034;2023-01-08T14:34:00;6.00;99.90
20422;DHT22;10370;53.102;18.034;2023-01-08T14:39:23;6.10;99.90
20422;DHT22;10370;53.102;18.034;2023-01-08T14:44:45;6.00;99.90
20422;DHT22;10370;53.102;18.034;2023-01-08T14:50:07;6.10;99.90
20422;DHT22;10370;53.102;18.034;2023-01-08T14:55:41;6.00;99.90
20422;DHT22;10370;53.102;18.034;2023-01-08T15:01:19;6.00;99.90
20422;DHT22;10370;53.102;18.034;2023-01-08T15:31:05;6.10;99.90
20422;DHT22;10370;53.102;18.034;2023-01-08T15:36:59;6.10;99.90
20422;DHT22;10370;53.102;18.034;2023-01-08T15:54:29;6.00;99.90
20422;DHT22;10370;53.102;18.034;2023-01-08T16:12:06;6.00;99.90
20422;DHT22;10370;53.102;18.034;2023-01-08T16:17:28;5.90;99.90
20422;DHT22;10370;53.102;18.034;2023-01-08T16:22:50;5.90;99.90
20422;DHT22;10370;53.102;18.034;2023-01-08T16:28:11;5.80;99.90
20422;DHT22;10370;53.102;18.034;2023-01-08T16:33:33;5.80;99.90
20422;DHT22;10370;53.102;18.034;2023-01-08T16:38:54;5.70;99.90
20422;DHT22;10370;53.102;18.034;2023-01-08T16:44:25;5.70;99.90
20422;DHT22;10370;53.102;18.034;2023-01-08T16:49:52;5.80;99.90
20422;DHT22;10370;53.102;18.034;2023-01-08T17:07:12;5.80;99.90
20422;DHT22;10370;53.102;18.034;2023-01-08T17:12:56;5.80;99.90
20422;DHT22;10370;53.102;18.034;2023-01-08T17:23:38;5.70;99.90
20422;DHT22;10370;53.102;18.034;2023-01-08T17:34:29;5.60;99.90
20422;DHT22;10370;53.102;18.034;2023-01-08T17:39:50;5.60;99.90
20422;DHT22;10370;53.102;18.034;2023-01-08T17:45:14;5.60;99.90
20422;DHT22;10370;53.102;18.034;2023-01-08T17:50:40;5.60;99.90
20422;DHT22;10370;53.102;18.034;2023-01-08T17:56:01;5.50;99.90
20422;DHT22;10370;53.102;18.034;2023-01-08T18:07:10;5.40;99.90
20422;DHT22;10370;53.102;18.034;2023-01-08T18:12:32;5.40;99.90
20422;DHT22;10370;53.102;18.034;2023-01-08T18:17:53;5.40;99.90
20422;DHT22;10370;53.102;18.034;2023-01-08T18:23:25;5.30;99.90
20422;DHT22;10370;53.102;18.034;2023-01-08T18:28:47;5.30;99.90
20422;DHT22;10370;53.102;18.034;2023-01-08T18:34:10;5.30;99.90
20422;DHT22;10370;53.102;18.034;2023-01-08T18:39:35;5.20;99.90
20422;DHT22;10370;53.102;18.034;2023-01-08T18:44:58;5.20;99.90
20422;DHT22;10370;53.102;18.034;2023-01-08T18:50:20;5.20;99.90
20422;DHT22;10370;53.102;18.034;2023-01-08T18:55:48;5.20;99.90
20422;DHT22;10370;53.102;18.034;2023-01-08T19:01:11;5.10;99.90
20422;DHT22;10370;53.102;18.034;2023-01-08T19:06:34;5.10;99.90
20422;DHT22;10370;53.102;18.034;2023-01-08T19:11:55;5.10;99.90
20422;DHT22;10370;53.102;18.034;2023-01-08T19:17:16;5.00;99.90
20422;DHT22;10370;53.102;18.034;2023-01-08T19:22:37;5.00;99.90
20422;DHT22;10370;53.102;18.034;2023-01-08T19:28:04;5.00;99.90
20422;DHT22;10370;53.102;18.034;2023-01-08T19:33:25;5.00;99.90
20422;DHT22;10370;53.102;18.034;2023-01-08T19:38:49;4.90;99.90
20422;DHT22;10370;53.102;18.034;2023-01-08T19:44:10;4.90;99.90
20422;DHT22;10370;53.102;18.034;2023-01-08T19:49:31;4.90;99.90
20422;DHT22;10370;53.102;18.034;2023-01-08T19:54:52;4.80;99.90
20422;DHT22;10370;53.102;18.034;2023-01-08T20:00:17;4.80;99.90
20422;DHT22;10370;53.102;18.034;2023-01-08T20:05:44;4.80;99.90
20422;DHT22;10370;53.102;18.034;2023-01-08T20:11:09;4.70;99.90
20422;DHT22;10370;53.102;18.034;2023-01-08T20:16:31;4.70;99.90
20422;DHT22;10370;53.102;18.034;2023-01-08T20:21:52;4.70;99.90
20422;DHT22;10370;53.102;18.034;2023-01-08T20:27:16;4.70;99.90
20422;DHT22;10370;53.102;18.034;2023-01-08T20:32:38;4.70;99.90
20422;DHT22;10370;53.102;18.034;2023-01-08T20:37:59;4.60;99.90
20422;DHT22;10370;53.102;18.034;2023-01-08T20:43:20;4.60;99.90
20422;DHT22;10370;53.102;18.034;2023-01-08T20:48:45;4.60;99.90
20422;DHT22;10370;53.102;18.034;2023-01-08T20:54:13;4.60;99.90
20422;DHT22;10370;53.102;18.034;2023-01-08T20:59:35;4.50;99.90
20422;DHT22;10370;53.102;18.034;2023-01-08T21:04:56;4.60;99.90
20422;DHT22;10370;53.102;18.034;2023-01-08T21:10:17;4.50;99.90
20422;DHT22;10370;53.102;18.034;2023-01-08T21:21:43;4.50;99.90
20422;DHT22;10370;53.102;18.034;2023-01-08T21:27:05;4.50;99.90
20422;DHT22;10370;53.102;18.034;2023-01-08T21:32:26;4.50;99.90
20422;DHT22;10370;53.102;18.034;2023-01-08T21:37:48;4.50;99.90
20422;DHT22;10370;53.102;18.034;2023-01-08T21:43:11;4.40;99.90
20422;DHT22;10370;53.102;18.034;2023-01-08T21:48:51;4.40;99.90
20422;DHT22;10370;53.102;18.034;2023-01-08T21:54:12;4.40;99.90
20422;DHT22;10370;53.102;18.034;2023-01-08T21:59:33;4.40;99.90
20422;DHT22;10370;53.102;18.034;2023-01-08T22:04:54;4.40;99.90
20422;DHT22;10370;53.102;18.034;2023-01-08T22:10:16;4.40;99.90
20422;DHT22;10370;53.102;18.034;2023-01-08T22:15:37;4.40;99.90
20422;DHT22;10370;53.102;18.034;2023-01-08T22:32:56;4.50;99.90
20422;DHT22;10370;53.102;18.034;2023-01-08T22:38:30;4.50;99.90
20422;DHT22;10370;53.102;18.034;2023-01-08T22:43:52;4.50;99.90
20422;DHT22;10370;53.102;18.034;2023-01-08T22:49:15;4.50;99.90
20422;DHT22;10370;53.102;18.034;2023-01-08T22:54:37;4.50;99.90
20422;DHT22;10370;53.102;18.034;2023-01-08T23:06:31;4.50;99.90
20422;DHT22;10370;53.102;18.034;2023-01-08T23:11:52;4.50;99.90
20422;DHT22;10370;53.102;18.034;2023-01-08T23:17:13;4.50;99.90
20422;DHT22;10370;53.102;18.034;2023-01-08T23:22:47;4.50;99.90
20422;DHT22;10370;53.102;18.034;2023-01-08T23:28:08;4.50;99.90
20422;DHT22;10370;53.102;18.034;2023-01-08T23:33:29;4.50;99.90
20422;DHT22;10370;53.102;18.034;2023-01-08T23:38:52;4.50;99.90
20422;DHT22;10370;53.102;18.034;2023-01-08T23:44:14;4.50;99.90
20422;DHT22;10370;53.102;18.034;2023-01-08T23:49:35;4.50;99.90
20422;DHT22;10370;53.102;18.034;2023-01-08T23:55:06;4.50;99.90
